sensor_id;sensor_type;location;lat;lon;timestamp;temperature;humidity
68385;DHT22;55336;43.062;25.626;2022-07-29T00:02:05;18.40;99.90
68385;DHT22;55336;43.062;25.626;2022-07-29T00:04:49;18.30;99.90
68385;DHT22;55336;43.062;25.626;2022-07-29T00:07:15;18.30;99.90
68385;DHT22;55336;43.062;25.626;2022-07-29T00:09:41;18.30;99.90
68385;DHT22;55336;43.062;25.626;2022-07-29T00:12:12;18.30;99.90
68385;DHT22;55336;43.062;25.626;2022-07-29T00:14:38;18.30;99.90
68385;DHT22;55336;43.062;25.626;2022-07-29T00:17:04;18.30;99.90
68385;DHT22;55336;43.062;25.626;2022-07-29T00:19:30;18.30;99.90
68385;DHT22;55336;43.062;25.626;2022-07-29T00:22:02;18.30;99.90
68385;DHT22;55336;43.062;25.626;2022-07-29T00:24:27;18.30;99.90
68385;DHT22;55336;43.062;25.626;2022-07-29T00:26:53;18.20;99.90
68385;DHT22;55336;43.062;25.626;2022-07-29T00:29:19;18.20;99.90
68385;DHT22;55336;43.062;25.626;2022-07-29T00:31:45;18.20;99.90
68385;DHT22;55336;43.062;25.626;2022-07-29T00:34:30;18.10;99.90
68385;DHT22;55336;43.062;25.626;2022-07-29T00:37:26;18.20;99.90
68385;DHT22;55336;43.062;25.626;2022-07-29T00:39:52;18.10;99.90
68385;DHT22;55336;43.062;25.626;2022-07-29T00:42:18;18.10;99.90
68385;DHT22;55336;43.062;25.626;2022-07-29T00:45:02;18.10;99.90
68385;DHT22;55336;43.062;25.626;2022-07-29T00:47:46;18.10;99.90
68385;DHT22;55336;43.062;25.626;2022-07-29T00:50:32;18.10;99.90
68385;DHT22;55336;43.062;25.626;2022-07-29T00:52:58;18.00;99.90
68385;DHT22;55336;43.062;25.626;2022-07-29T00:55:43;18.00;99.90
68385;DHT22;55336;43.062;25.626;2022-07-29T00:58:08;18.00;99.90
68385;DHT22;55336;43.062;25.626;2022-07-29T01:00:44;18.00;99.90
68385;DHT22;55336;43.062;25.626;2022-07-29T01:03:10;17.90;99.90
68385;DHT22;55336;43.062;25.626;2022-07-29T01:05:36;17.90;99.90
68385;DHT22;55336;43.062;25.626;2022-07-29T01:08:02;17.90;99.90
68385;DHT22;55336;43.062;25.626;2022-07-29T01:10:28;17.80;99.90
68385;DHT22;55336;43.062;25.626;2022-07-29T01:12:57;17.80;99.90
68385;DHT22;55336;43.062;25.626;2022-07-29T01:15:24;17.80;99.90
68385;DHT22;55336;43.062;25.626;2022-07-29T01:18:07;17.80;99.90
68385;DHT22;55336;43.062;25.626;2022-07-29T01:20:58;17.80;99.90
68385;DHT22;55336;43.062;25.626;2022-07-29T01:26:41;17.70;99.90
68385;DHT22;55336;43.062;25.626;2022-07-29T01:29:16;17.70;99.90
68385;DHT22;55336;43.062;25.626;2022-07-29T01:32:05;17.70;99.90
68385;DHT22;55336;43.062;25.626;2022-07-29T01:37:47;17.50;99.90
68385;DHT22;55336;43.062;25.626;2022-07-29T01:40:23;17.60;99.90
68385;DHT22;55336;43.062;25.626;2022-07-29T01:42:54;17.50;99.90
68385;DHT22;55336;43.062;25.626;2022-07-29T01:45:28;17.50;99.90
68385;DHT22;55336;43.062;25.626;2022-07-29T01:48:02;17.50;99.90
68385;DHT22;55336;43.062;25.626;2022-07-29T01:50:34;17.50;99.90
68385;DHT22;55336;43.062;25.626;2022-07-29T01:53:05;17.50;99.90
68385;DHT22;55336;43.062;25.626;2022-07-29T01:55:39;17.40;99.90
68385;DHT22;55336;43.062;25.626;2022-07-29T01:58:07;17.40;99.90
68385;DHT22;55336;43.062;25.626;2022-07-29T02:00:34;17.40;99.90
68385;DHT22;55336;43.062;25.626;2022-07-29T02:03:05;17.40;99.90
68385;DHT22;55336;43.062;25.626;2022-07-29T02:05:33;17.40;99.90
68385;DHT22;55336;43.062;25.626;2022-07-29T02:08:01;17.40;99.90
68385;DHT22;55336;43.062;25.626;2022-07-29T02:10:29;17.40;99.90
68385;DHT22;55336;43.062;25.626;2022-07-29T02:12:57;17.40;99.90
68385;DHT22;55336;43.062;25.626;2022-07-29T02:15:29;17.40;99.90
68385;DHT22;55336;43.062;25.626;2022-07-29T02:18:06;17.40;99.90
68385;DHT22;55336;43.062;25.626;2022-07-29T02:20:33;17.40;99.90
68385;DHT22;55336;43.062;25.626;2022-07-29T02:23:02;17.30;99.90
68385;DHT22;55336;43.062;25.626;2022-07-29T02:25:29;17.40;99.90
68385;DHT22;55336;43.062;25.626;2022-07-29T02:27:55;17.30;99.90
68385;DHT22;55336;43.062;25.626;2022-07-29T02:30:23;17.30;99.90
68385;DHT22;55336;43.062;25.626;2022-07-29T02:32:50;17.30;99.90
68385;DHT22;55336;43.062;25.626;2022-07-29T02:35:18;17.20;99.90
68385;DHT22;55336;43.062;25.626;2022-07-29T02:37:45;17.20;99.90
68385;DHT22;55336;43.062;25.626;2022-07-29T02:40:34;17.20;99.90
68385;DHT22;55336;43.062;25.626;2022-07-29T02:43:05;17.20;99.90
68385;DHT22;55336;43.062;25.626;2022-07-29T02:45:32;17.20;99.90
68385;DHT22;55336;43.062;25.626;2022-07-29T02:48:00;17.20;99.90
68385;DHT22;55336;43.062;25.626;2022-07-29T02:50:34;17.10;99.90
68385;DHT22;55336;43.062;25.626;2022-07-29T02:53:07;17.10;99.90
68385;DHT22;55336;43.062;25.626;2022-07-29T02:55:40;17.10;99.90
68385;DHT22;55336;43.062;25.626;2022-07-29T03:00:40;17.00;99.90
68385;DHT22;55336;43.062;25.626;2022-07-29T03:03:14;16.90;99.90
68385;DHT22;55336;43.062;25.626;2022-07-29T03:05:40;16.90;99.90
68385;DHT22;55336;43.062;25.626;2022-07-29T03:08:08;16.90;99.90
68385;DHT22;55336;43.062;25.626;2022-07-29T03:10:34;16.90;99.90
68385;DHT22;55336;43.062;25.626;2022-07-29T03:13:02;16.90;99.90
68385;DHT22;55336;43.062;25.626;2022-07-29T03:15:30;16.90;99.90
68385;DHT22;55336;43.062;25.626;2022-07-29T03:17:56;16.90;99.90
68385;DHT22;55336;43.062;25.626;2022-07-29T03:20:23;16.90;99.90
68385;DHT22;55336;43.062;25.626;2022-07-29T03:22:49;17.00;99.90
68385;DHT22;55336;43.062;25.626;2022-07-29T03:25:16;17.00;99.90
68385;DHT22;55336;43.062;25.626;2022-07-29T03:27:43;17.00;99.90
68385;DHT22;55336;43.062;25.626;2022-07-29T03:30:10;17.00;99.90
68385;DHT22;55336;43.062;25.626;2022-07-29T03:32:37;16.90;99.90
68385;DHT22;55336;43.062;25.626;2022-07-29T03:35:03;17.00;99.90
68385;DHT22;55336;43.062;25.626;2022-07-29T03:37:30;17.00;99.90
68385;DHT22;55336;43.062;25.626;2022-07-29T03:39:57;17.00;99.90
68385;DHT22;55336;43.062;25.626;2022-07-29T03:42:27;17.00;99.90
68385;DHT22;55336;43.062;25.626;2022-07-29T03:44:54;17.00;99.90
68385;DHT22;55336;43.062;25.626;2022-07-29T03:47:24;17.10;99.90
68385;DHT22;55336;43.062;25.626;2022-07-29T03:49:59;17.10;99.90
68385;DHT22;55336;43.062;25.626;2022-07-29T03:52:26;17.30;99.90
68385;DHT22;55336;43.062;25.626;2022-07-29T03:54:52;17.20;99.90
68385;DHT22;55336;43.062;25.626;2022-07-29T03:57:20;17.30;99.90
68385;DHT22;55336;43.062;25.626;2022-07-29T03:59:49;17.40;99.90
68385;DHT22;55336;43.062;25.626;2022-07-29T04:02:17;17.40;99.90
68385;DHT22;55336;43.062;25.626;2022-07-29T04:04:43;17.50;99.90
68385;DHT22;55336;43.062;25.626;2022-07-29T04:07:12;17.50;99.90
68385;DHT22;55336;43.062;25.626;2022-07-29T04:09:38;17.60;99.90
68385;DHT22;55336;43.062;25.626;2022-07-29T04:12:04;17.60;99.90
68385;DHT22;55336;43.062;25.626;2022-07-29T04:14:31;17.70;99.90
68385;DHT22;55336;43.062;25.626;2022-07-29T04:16:57;17.80;99.90
68385;DHT22;55336;43.062;25.626;2022-07-29T04:19:23;17.80;99.90
68385;DHT22;55336;43.062;25.626;2022-07-29T04:21:49;17.80;99.90
68385;DHT22;55336;43.062;25.626;2022-07-29T04:24:15;17.90;99.90
68385;DHT22;55336;43.062;25.626;2022-07-29T04:26:41;18.00;99.90
68385;DHT22;55336;43.062;25.626;2022-07-29T04:29:07;18.00;99.90
68385;DHT22;55336;43.062;25.626;2022-07-29T04:31:32;18.10;99.90
68385;DHT22;55336;43.062;25.626;2022-07-29T04:33:58;18.30;99.90
68385;DHT22;55336;43.062;25.626;2022-07-29T04:36:24;18.50;99.90
68385;DHT22;55336;43.062;25.626;2022-07-29T04:38:50;18.70;99.90
68385;DHT22;55336;43.062;25.626;2022-07-29T04:41:15;18.90;99.90
68385;DHT22;55336;43.062;25.626;2022-07-29T04:43:41;19.20;99.90
68385;DHT22;55336;43.062;25.626;2022-07-29T04:46:07;19.40;99.90
68385;DHT22;55336;43.062;25.626;2022-07-29T04:48:33;19.50;99.90
68385;DHT22;55336;43.062;25.626;2022-07-29T04:50:59;19.70;99.90
68385;DHT22;55336;43.062;25.626;2022-07-29T04:53:25;19.90;99.90
68385;DHT22;55336;43.062;25.626;2022-07-29T04:55:51;19.90;99.90
68385;DHT22;55336;43.062;25.626;2022-07-29T04:58:17;20.10;99.90
68385;DHT22;55336;43.062;25.626;2022-07-29T05:00:43;20.20;99.90
68385;DHT22;55336;43.062;25.626;2022-07-29T05:03:09;20.20;99.90
68385;DHT22;55336;43.062;25.626;2022-07-29T05:05:36;20.10;99.90
68385;DHT22;55336;43.062;25.626;2022-07-29T05:08:02;20.20;99.90
68385;DHT22;55336;43.062;25.626;2022-07-29T05:10:28;20.20;99.90
68385;DHT22;55336;43.062;25.626;2022-07-29T05:12:54;20.30;99.90
68385;DHT22;55336;43.062;25.626;2022-07-29T05:15:20;20.40;99.90
68385;DHT22;55336;43.062;25.626;2022-07-29T05:17:46;20.50;99.90
68385;DHT22;55336;43.062;25.626;2022-07-29T05:20:12;20.70;99.90
68385;DHT22;55336;43.062;25.626;2022-07-29T05:22:37;20.80;99.90
68385;DHT22;55336;43.062;25.626;2022-07-29T05:25:04;21.00;99.90
68385;DHT22;55336;43.062;25.626;2022-07-29T05:27:30;21.10;99.90
68385;DHT22;55336;43.062;25.626;2022-07-29T05:29:55;21.20;99.90
68385;DHT22;55336;43.062;25.626;2022-07-29T05:32:21;21.50;99.90
68385;DHT22;55336;43.062;25.626;2022-07-29T05:34:47;21.50;99.90
68385;DHT22;55336;43.062;25.626;2022-07-29T05:37:13;21.90;99.90
68385;DHT22;55336;43.062;25.626;2022-07-29T05:39:40;22.40;99.90
68385;DHT22;55336;43.062;25.626;2022-07-29T05:42:09;22.90;99.90
68385;DHT22;55336;43.062;25.626;2022-07-29T05:44:39;23.30;99.90
68385;DHT22;55336;43.062;25.626;2022-07-29T05:47:05;23.40;99.90
68385;DHT22;55336;43.062;25.626;2022-07-29T05:49:32;23.80;99.90
68385;DHT22;55336;43.062;25.626;2022-07-29T05:51:57;24.10;99.90
68385;DHT22;55336;43.062;25.626;2022-07-29T05:54:24;24.40;99.90
68385;DHT22;55336;43.062;25.626;2022-07-29T05:56:50;24.80;99.90
68385;DHT22;55336;43.062;25.626;2022-07-29T05:59:15;25.20;99.90
68385;DHT22;55336;43.062;25.626;2022-07-29T06:01:41;24.40;99.90
68385;DHT22;55336;43.062;25.626;2022-07-29T06:04:07;25.00;99.90
68385;DHT22;55336;43.062;25.626;2022-07-29T06:06:33;24.70;99.90
68385;DHT22;55336;43.062;25.626;2022-07-29T06:09:00;25.00;99.90
68385;DHT22;55336;43.062;25.626;2022-07-29T06:11:26;25.20;99.90
68385;DHT22;55336;43.062;25.626;2022-07-29T06:13:51;25.50;99.70
68385;DHT22;55336;43.062;25.626;2022-07-29T06:16:19;25.40;96.70
68385;DHT22;55336;43.062;25.626;2022-07-29T06:18:45;25.60;95.70
68385;DHT22;55336;43.062;25.626;2022-07-29T06:21:10;26.30;94.40
68385;DHT22;55336;43.062;25.626;2022-07-29T06:23:37;26.50;87.80
68385;DHT22;55336;43.062;25.626;2022-07-29T06:26:04;26.50;86.60
68385;DHT22;55336;43.062;25.626;2022-07-29T06:28:30;26.60;88.30
68385;DHT22;55336;43.062;25.626;2022-07-29T06:30:56;27.20;84.20
68385;DHT22;55336;43.062;25.626;2022-07-29T06:33:22;27.30;85.50
68385;DHT22;55336;43.062;25.626;2022-07-29T06:35:48;27.70;86.40
68385;DHT22;55336;43.062;25.626;2022-07-29T06:38:15;27.40;90.10
68385;DHT22;55336;43.062;25.626;2022-07-29T06:40:42;28.00;82.30
68385;DHT22;55336;43.062;25.626;2022-07-29T06:43:27;28.60;76.00
68385;DHT22;55336;43.062;25.626;2022-07-29T06:45:54;28.70;74.90
68385;DHT22;55336;43.062;25.626;2022-07-29T06:48:20;27.80;75.40
68385;DHT22;55336;43.062;25.626;2022-07-29T06:50:46;28.70;70.00
68385;DHT22;55336;43.062;25.626;2022-07-29T06:53:11;29.30;67.90
68385;DHT22;55336;43.062;25.626;2022-07-29T06:55:37;29.70;63.00
68385;DHT22;55336;43.062;25.626;2022-07-29T06:58:03;30.00;61.60
68385;DHT22;55336;43.062;25.626;2022-07-29T07:00:29;30.20;65.50
68385;DHT22;55336;43.062;25.626;2022-07-29T07:02:55;30.00;62.60
68385;DHT22;55336;43.062;25.626;2022-07-29T07:05:21;30.50;60.60
68385;DHT22;55336;43.062;25.626;2022-07-29T07:07:49;30.50;61.90
68385;DHT22;55336;43.062;25.626;2022-07-29T07:10:15;30.40;63.90
68385;DHT22;55336;43.062;25.626;2022-07-29T07:12:41;30.90;57.00
68385;DHT22;55336;43.062;25.626;2022-07-29T07:15:07;30.70;55.50
68385;DHT22;55336;43.062;25.626;2022-07-29T07:17:33;31.00;53.60
68385;DHT22;55336;43.062;25.626;2022-07-29T07:20:19;31.70;51.80
68385;DHT22;55336;43.062;25.626;2022-07-29T07:22:45;32.10;50.00
68385;DHT22;55336;43.062;25.626;2022-07-29T07:25:12;32.40;50.70
68385;DHT22;55336;43.062;25.626;2022-07-29T07:27:38;31.80;50.80
68385;DHT22;55336;43.062;25.626;2022-07-29T07:30:05;32.40;51.70
68385;DHT22;55336;43.062;25.626;2022-07-29T07:32:34;32.30;54.30
68385;DHT22;55336;43.062;25.626;2022-07-29T07:35:01;32.80;50.90
68385;DHT22;55336;43.062;25.626;2022-07-29T07:37:27;31.70;52.10
68385;DHT22;55336;43.062;25.626;2022-07-29T07:39:53;32.30;49.30
68385;DHT22;55336;43.062;25.626;2022-07-29T07:42:19;33.00;50.30
68385;DHT22;55336;43.062;25.626;2022-07-29T07:44:45;33.40;43.80
68385;DHT22;55336;43.062;25.626;2022-07-29T07:47:14;33.90;40.90
68385;DHT22;55336;43.062;25.626;2022-07-29T07:50:10;34.10;38.40
68385;DHT22;55336;43.062;25.626;2022-07-29T07:52:49;34.60;36.70
68385;DHT22;55336;43.062;25.626;2022-07-29T07:55:16;34.70;35.00
68385;DHT22;55336;43.062;25.626;2022-07-29T07:57:43;34.40;34.20
68385;DHT22;55336;43.062;25.626;2022-07-29T08:00:09;35.00;33.50
68385;DHT22;55336;43.062;25.626;2022-07-29T08:02:35;35.10;35.10
68385;DHT22;55336;43.062;25.626;2022-07-29T08:05:05;35.10;32.70
68385;DHT22;55336;43.062;25.626;2022-07-29T08:07:31;35.10;33.20
68385;DHT22;55336;43.062;25.626;2022-07-29T08:13:30;35.30;30.30
68385;DHT22;55336;43.062;25.626;2022-07-29T08:15:58;35.30;30.50
68385;DHT22;55336;43.062;25.626;2022-07-29T08:18:37;35.00;33.60
68385;DHT22;55336;43.062;25.626;2022-07-29T08:21:04;35.60;31.40
68385;DHT22;55336;43.062;25.626;2022-07-29T08:23:29;35.80;32.30
68385;DHT22;55336;43.062;25.626;2022-07-29T08:26:08;35.80;29.70
68385;DHT22;55336;43.062;25.626;2022-07-29T08:28:41;35.80;32.40
68385;DHT22;55336;43.062;25.626;2022-07-29T08:31:10;36.00;29.50
68385;DHT22;55336;43.062;25.626;2022-07-29T08:33:36;36.20;30.60
68385;DHT22;55336;43.062;25.626;2022-07-29T08:36:02;35.70;28.80
68385;DHT22;55336;43.062;25.626;2022-07-29T08:38:28;36.10;28.40
68385;DHT22;55336;43.062;25.626;2022-07-29T08:40:54;36.50;27.60
68385;DHT22;55336;43.062;25.626;2022-07-29T08:43:20;36.50;26.80
68385;DHT22;55336;43.062;25.626;2022-07-29T08:45:50;36.40;26.90
68385;DHT22;55336;43.062;25.626;2022-07-29T08:48:18;36.20;28.00
68385;DHT22;55336;43.062;25.626;2022-07-29T08:50:46;36.10;30.40
68385;DHT22;55336;43.062;25.626;2022-07-29T08:53:17;36.50;27.70
68385;DHT22;55336;43.062;25.626;2022-07-29T08:55:45;36.40;27.40
68385;DHT22;55336;43.062;25.626;2022-07-29T08:58:11;36.10;27.50
68385;DHT22;55336;43.062;25.626;2022-07-29T09:00:44;36.40;27.60
68385;DHT22;55336;43.062;25.626;2022-07-29T09:03:15;36.90;27.30
68385;DHT22;55336;43.062;25.626;2022-07-29T09:05:47;36.60;30.20
68385;DHT22;55336;43.062;25.626;2022-07-29T09:08:16;37.10;27.90
68385;DHT22;55336;43.062;25.626;2022-07-29T09:10:43;37.50;28.00
68385;DHT22;55336;43.062;25.626;2022-07-29T09:13:10;37.90;25.70
68385;DHT22;55336;43.062;25.626;2022-07-29T09:15:36;38.10;25.70
68385;DHT22;55336;43.062;25.626;2022-07-29T09:18:02;37.60;23.40
68385;DHT22;55336;43.062;25.626;2022-07-29T09:20:28;37.80;25.40
68385;DHT22;55336;43.062;25.626;2022-07-29T09:23:13;37.30;25.40
68385;DHT22;55336;43.062;25.626;2022-07-29T09:25:40;37.70;23.70
68385;DHT22;55336;43.062;25.626;2022-07-29T09:28:12;37.80;24.70
68385;DHT22;55336;43.062;25.626;2022-07-29T09:30:56;37.90;22.70
68385;DHT22;55336;43.062;25.626;2022-07-29T09:33:30;38.00;23.60
68385;DHT22;55336;43.062;25.626;2022-07-29T09:36:08;38.40;23.10
68385;DHT22;55336;43.062;25.626;2022-07-29T09:38:35;38.60;25.10
68385;DHT22;55336;43.062;25.626;2022-07-29T09:41:03;38.80;24.10
68385;DHT22;55336;43.062;25.626;2022-07-29T09:43:29;38.80;20.70
68385;DHT22;55336;43.062;25.626;2022-07-29T09:45:55;38.90;20.80
68385;DHT22;55336;43.062;25.626;2022-07-29T09:48:36;38.40;22.00
68385;DHT22;55336;43.062;25.626;2022-07-29T09:51:02;38.50;21.60
68385;DHT22;55336;43.062;25.626;2022-07-29T09:53:37;38.70;20.80
68385;DHT22;55336;43.062;25.626;2022-07-29T09:56:05;38.50;20.70
68385;DHT22;55336;43.062;25.626;2022-07-29T09:58:31;38.30;21.90
68385;DHT22;55336;43.062;25.626;2022-07-29T10:01:01;37.20;23.90
68385;DHT22;55336;43.062;25.626;2022-07-29T10:03:27;37.00;23.50
68385;DHT22;55336;43.062;25.626;2022-07-29T10:06:07;37.00;26.10
68385;DHT22;55336;43.062;25.626;2022-07-29T10:08:35;37.30;24.60
68385;DHT22;55336;43.062;25.626;2022-07-29T10:11:18;37.50;25.20
68385;DHT22;55336;43.062;25.626;2022-07-29T10:13:46;38.00;25.40
68385;DHT22;55336;43.062;25.626;2022-07-29T10:16:13;37.60;23.60
68385;DHT22;55336;43.062;25.626;2022-07-29T10:18:40;37.50;23.60
68385;DHT22;55336;43.062;25.626;2022-07-29T10:21:06;37.00;25.80
68385;DHT22;55336;43.062;25.626;2022-07-29T10:23:34;37.20;24.80
68385;DHT22;55336;43.062;25.626;2022-07-29T10:26:00;37.20;26.00
68385;DHT22;55336;43.062;25.626;2022-07-29T10:28:26;37.40;24.90
68385;DHT22;55336;43.062;25.626;2022-07-29T10:31:00;38.00;23.70
68385;DHT22;55336;43.062;25.626;2022-07-29T10:38:38;38.60;21.70
68385;DHT22;55336;43.062;25.626;2022-07-29T10:46:41;37.40;23.50
68385;DHT22;55336;43.062;25.626;2022-07-29T10:49:18;38.10;24.40
68385;DHT22;55336;43.062;25.626;2022-07-29T10:51:51;38.30;23.70
68385;DHT22;55336;43.062;25.626;2022-07-29T10:54:47;37.90;23.00
68385;DHT22;55336;43.062;25.626;2022-07-29T10:57:18;38.20;25.00
68385;DHT22;55336;43.062;25.626;2022-07-29T10:59:50;38.80;23.50
68385;DHT22;55336;43.062;25.626;2022-07-29T11:05:04;39.80;20.90
68385;DHT22;55336;43.062;25.626;2022-07-29T11:07:31;40.10;21.00
68385;DHT22;55336;43.062;25.626;2022-07-29T11:15:11;40.00;19.70
68385;DHT22;55336;43.062;25.626;2022-07-29T11:20:48;39.90;21.10
68385;DHT22;55336;43.062;25.626;2022-07-29T11:23:33;40.40;19.60
68385;DHT22;55336;43.062;25.626;2022-07-29T11:28:50;39.60;21.30
68385;DHT22;55336;43.062;25.626;2022-07-29T11:39:42;39.70;19.90
68385;DHT22;55336;43.062;25.626;2022-07-29T11:44:55;39.70;19.30
68385;DHT22;55336;43.062;25.626;2022-07-29T11:47:22;39.50;18.30
68385;DHT22;55336;43.062;25.626;2022-07-29T11:49:49;39.60;19.50
68385;DHT22;55336;43.062;25.626;2022-07-29T11:52:17;39.60;19.80
68385;DHT22;55336;43.062;25.626;2022-07-29T11:54:43;39.70;19.20
68385;DHT22;55336;43.062;25.626;2022-07-29T11:57:09;39.90;19.50
68385;DHT22;55336;43.062;25.626;2022-07-29T11:59:43;39.80;22.10
68385;DHT22;55336;43.062;25.626;2022-07-29T12:02:10;39.40;22.90
68385;DHT22;55336;43.062;25.626;2022-07-29T12:04:51;39.10;22.90
68385;DHT22;55336;43.062;25.626;2022-07-29T12:07:18;39.40;20.50
68385;DHT22;55336;43.062;25.626;2022-07-29T12:09:51;39.40;20.90
68385;DHT22;55336;43.062;25.626;2022-07-29T12:12:18;39.90;21.30
68385;DHT22;55336;43.062;25.626;2022-07-29T12:14:45;40.20;20.20
68385;DHT22;55336;43.062;25.626;2022-07-29T12:17:28;40.50;20.30
68385;DHT22;55336;43.062;25.626;2022-07-29T12:19:55;40.70;21.60
68385;DHT22;55336;43.062;25.626;2022-07-29T12:22:35;40.80;19.90
68385;DHT22;55336;43.062;25.626;2022-07-29T12:25:04;41.10;20.10
68385;DHT22;55336;43.062;25.626;2022-07-29T12:27:31;40.90;19.50
68385;DHT22;55336;43.062;25.626;2022-07-29T12:29:59;41.10;19.40
68385;DHT22;55336;43.062;25.626;2022-07-29T12:32:37;41.30;19.10
68385;DHT22;55336;43.062;25.626;2022-07-29T12:35:14;41.70;19.90
68385;DHT22;55336;43.062;25.626;2022-07-29T12:37:43;41.50;18.20
68385;DHT22;55336;43.062;25.626;2022-07-29T12:40:15;41.70;17.90
68385;DHT22;55336;43.062;25.626;2022-07-29T12:45:31;41.50;19.10
68385;DHT22;55336;43.062;25.626;2022-07-29T12:47:57;41.50;18.10
68385;DHT22;55336;43.062;25.626;2022-07-29T12:50:23;40.80;18.90
68385;DHT22;55336;43.062;25.626;2022-07-29T12:52:50;40.90;21.00
68385;DHT22;55336;43.062;25.626;2022-07-29T12:55:43;41.20;20.80
68385;DHT22;55336;43.062;25.626;2022-07-29T12:58:10;41.40;19.50
68385;DHT22;55336;43.062;25.626;2022-07-29T13:00:36;41.20;18.40
68385;DHT22;55336;43.062;25.626;2022-07-29T13:03:02;41.40;19.10
68385;DHT22;55336;43.062;25.626;2022-07-29T13:05:43;41.90;17.40
68385;DHT22;55336;43.062;25.626;2022-07-29T13:08:19;42.50;16.80
68385;DHT22;55336;43.062;25.626;2022-07-29T13:10:45;41.70;15.80
68385;DHT22;55336;43.062;25.626;2022-07-29T13:13:13;42.10;18.00
68385;DHT22;55336;43.062;25.626;2022-07-29T13:15:45;41.80;16.50
68385;DHT22;55336;43.062;25.626;2022-07-29T13:18:30;41.40;16.90
68385;DHT22;55336;43.062;25.626;2022-07-29T13:20:56;41.30;17.40
68385;DHT22;55336;43.062;25.626;2022-07-29T13:23:22;41.30;16.70
68385;DHT22;55336;43.062;25.626;2022-07-29T13:25:48;41.40;16.40
68385;DHT22;55336;43.062;25.626;2022-07-29T13:28:14;40.90;17.90
68385;DHT22;55336;43.062;25.626;2022-07-29T13:30:41;41.00;18.00
68385;DHT22;55336;43.062;25.626;2022-07-29T13:33:07;41.50;17.00
68385;DHT22;55336;43.062;25.626;2022-07-29T13:35:33;41.20;16.80
68385;DHT22;55336;43.062;25.626;2022-07-29T13:37:59;40.10;18.70
68385;DHT22;55336;43.062;25.626;2022-07-29T13:40:25;40.70;18.70
68385;DHT22;55336;43.062;25.626;2022-07-29T13:42:51;40.90;19.20
68385;DHT22;55336;43.062;25.626;2022-07-29T13:45:17;40.50;23.10
68385;DHT22;55336;43.062;25.626;2022-07-29T13:47:43;41.50;17.70
68385;DHT22;55336;43.062;25.626;2022-07-29T13:50:09;41.40;17.10
68385;DHT22;55336;43.062;25.626;2022-07-29T13:52:36;41.40;17.00
68385;DHT22;55336;43.062;25.626;2022-07-29T13:55:04;41.60;19.80
68385;DHT22;55336;43.062;25.626;2022-07-29T13:57:30;41.30;19.10
68385;DHT22;55336;43.062;25.626;2022-07-29T13:59:56;42.00;17.60
68385;DHT22;55336;43.062;25.626;2022-07-29T14:02:23;41.90;17.30
68385;DHT22;55336;43.062;25.626;2022-07-29T14:04:49;42.00;17.90
68385;DHT22;55336;43.062;25.626;2022-07-29T14:07:15;41.70;17.80
68385;DHT22;55336;43.062;25.626;2022-07-29T14:09:41;42.10;17.10
68385;DHT22;55336;43.062;25.626;2022-07-29T14:12:09;42.00;15.30
68385;DHT22;55336;43.062;25.626;2022-07-29T14:14:36;41.80;15.70
68385;DHT22;55336;43.062;25.626;2022-07-29T14:17:02;41.70;17.10
68385;DHT22;55336;43.062;25.626;2022-07-29T14:19:28;41.80;16.50
68385;DHT22;55336;43.062;25.626;2022-07-29T14:21:54;41.60;18.20
68385;DHT22;55336;43.062;25.626;2022-07-29T14:24:20;41.70;18.10
68385;DHT22;55336;43.062;25.626;2022-07-29T14:26:46;42.00;16.70
68385;DHT22;55336;43.062;25.626;2022-07-29T14:29:12;42.00;15.80
68385;DHT22;55336;43.062;25.626;2022-07-29T14:31:38;41.70;16.90
68385;DHT22;55336;43.062;25.626;2022-07-29T14:34:04;41.70;15.90
68385;DHT22;55336;43.062;25.626;2022-07-29T14:36:30;41.40;16.10
68385;DHT22;55336;43.062;25.626;2022-07-29T14:38:55;41.70;16.30
68385;DHT22;55336;43.062;25.626;2022-07-29T14:41:21;41.90;15.80
68385;DHT22;55336;43.062;25.626;2022-07-29T14:43:47;41.60;16.10
68385;DHT22;55336;43.062;25.626;2022-07-29T14:46:13;41.20;17.00
68385;DHT22;55336;43.062;25.626;2022-07-29T14:48:39;41.00;17.50
68385;DHT22;55336;43.062;25.626;2022-07-29T14:51:05;41.30;17.60
68385;DHT22;55336;43.062;25.626;2022-07-29T14:53:31;41.50;16.20
68385;DHT22;55336;43.062;25.626;2022-07-29T14:55:57;41.30;16.30
68385;DHT22;55336;43.062;25.626;2022-07-29T14:58:23;40.50;17.70
68385;DHT22;55336;43.062;25.626;2022-07-29T15:00:49;39.40;19.30
68385;DHT22;55336;43.062;25.626;2022-07-29T15:03:15;38.50;20.50
68385;DHT22;55336;43.062;25.626;2022-07-29T15:05:42;37.90;21.80
68385;DHT22;55336;43.062;25.626;2022-07-29T15:08:08;37.60;24.70
68385;DHT22;55336;43.062;25.626;2022-07-29T15:10:34;37.40;25.60
68385;DHT22;55336;43.062;25.626;2022-07-29T15:13:00;37.40;26.30
68385;DHT22;55336;43.062;25.626;2022-07-29T15:15:27;37.40;26.40
68385;DHT22;55336;43.062;25.626;2022-07-29T15:17:53;37.10;27.00
68385;DHT22;55336;43.062;25.626;2022-07-29T15:20:18;37.50;26.50
68385;DHT22;55336;43.062;25.626;2022-07-29T15:22:45;37.60;25.20
68385;DHT22;55336;43.062;25.626;2022-07-29T15:25:10;38.00;25.50
68385;DHT22;55336;43.062;25.626;2022-07-29T15:27:36;38.00;24.90
68385;DHT22;55336;43.062;25.626;2022-07-29T15:30:03;37.90;25.20
68385;DHT22;55336;43.062;25.626;2022-07-29T15:32:29;38.40;24.70
68385;DHT22;55336;43.062;25.626;2022-07-29T15:34:54;38.60;24.60
68385;DHT22;55336;43.062;25.626;2022-07-29T15:37:20;38.40;24.70
68385;DHT22;55336;43.062;25.626;2022-07-29T15:39:46;38.20;25.20
68385;DHT22;55336;43.062;25.626;2022-07-29T15:42:12;37.90;26.50
68385;DHT22;55336;43.062;25.626;2022-07-29T15:44:38;37.30;25.50
68385;DHT22;55336;43.062;25.626;2022-07-29T15:47:04;37.10;27.50
68385;DHT22;55336;43.062;25.626;2022-07-29T15:49:36;36.80;27.60
68385;DHT22;55336;43.062;25.626;2022-07-29T15:52:06;36.50;28.10
68385;DHT22;55336;43.062;25.626;2022-07-29T15:54:37;36.60;29.00
68385;DHT22;55336;43.062;25.626;2022-07-29T15:57:04;36.60;28.30
68385;DHT22;55336;43.062;25.626;2022-07-29T15:59:31;36.30;28.20
68385;DHT22;55336;43.062;25.626;2022-07-29T16:01:57;36.10;29.20
68385;DHT22;55336;43.062;25.626;2022-07-29T16:04:23;35.90;28.90
68385;DHT22;55336;43.062;25.626;2022-07-29T16:06:49;35.70;29.70
68385;DHT22;55336;43.062;25.626;2022-07-29T16:09:16;35.30;30.50
68385;DHT22;55336;43.062;25.626;2022-07-29T16:11:42;35.10;31.60
68385;DHT22;55336;43.062;25.626;2022-07-29T16:14:09;34.90;30.70
68385;DHT22;55336;43.062;25.626;2022-07-29T16:16:36;34.60;32.00